sensor_id;sensor_type;location;lat;lon;timestamp;P1;durP1;ratioP1;P2;durP2;ratioP2
13366;SDS011;6752;52.612;13.630;2023-05-10T00:03:51;11.93;;;8.73;;
13366;SDS011;6752;52.612;13.630;2023-05-10T00:08:53;12.60;;;8.27;;
13366;SDS011;6752;52.612;13.630;2023-05-10T00:13:56;12.15;;;8.90;;
13366;SDS011;6752;52.612;13.630;2023-05-10T00:18:58;13.02;;;8.57;;
13366;SDS011;6752;52.612;13.630;2023-05-10T00:24:00;14.93;;;8.75;;
13366;SDS011;6752;52.612;13.630;2023-05-10T00:29:03;13.07;;;8.80;;
13366;SDS011;6752;52.612;13.630;2023-05-10T00:34:05;14.87;;;9.50;;
13366;SDS011;6752;52.612;13.630;2023-05-10T00:39:08;11.77;;;8.00;;
13366;SDS011;6752;52.612;13.630;2023-05-10T00:44:10;14.23;;;8.77;;
13366;SDS011;6752;52.612;13.630;2023-05-10T00:49:12;17.65;;;9.23;;
13366;SDS011;6752;52.612;13.630;2023-05-10T00:54:15;15.75;;;8.93;;
13366;SDS011;6752;52.612;13.630;2023-05-10T00:59:17;15.45;;;9.10;;
13366;SDS011;6752;52.612;13.630;2023-05-10T01:04:19;14.20;;;9.57;;
13366;SDS011;6752;52.612;13.630;2023-05-10T01:09:22;16.05;;;9.43;;
13366;SDS011;6752;52.612;13.630;2023-05-10T01:14:24;13.02;;;8.95;;
13366;SDS011;6752;52.612;13.630;2023-05-10T01:19:27;15.43;;;9.07;;
13366;SDS011;6752;52.612;13.630;2023-05-10T01:40:23;13.53;;;9.23;;
13366;SDS011;6752;52.612;13.630;2023-05-10T01:45:39;14.57;;;9.77;;
13366;SDS011;6752;52.612;13.630;2023-05-10T01:50:45;12.55;;;9.07;;
13366;SDS011;6752;52.612;13.630;2023-05-10T01:55:52;15.75;;;9.82;;
13366;SDS011;6752;52.612;13.630;2023-05-10T02:00:55;13.62;;;9.25;;
13366;SDS011;6752;52.612;13.630;2023-05-10T02:05:57;14.57;;;8.68;;
13366;SDS011;6752;52.612;13.630;2023-05-10T02:10:59;15.80;;;9.77;;
13366;SDS011;6752;52.612;13.630;2023-05-10T02:16:02;13.93;;;8.43;;
13366;SDS011;6752;52.612;13.630;2023-05-10T02:21:04;13.27;;;9.23;;
13366;SDS011;6752;52.612;13.630;2023-05-10T02:26:10;12.13;;;8.25;;
13366;SDS011;6752;52.612;13.630;2023-05-10T02:31:09;13.07;;;8.85;;
13366;SDS011;6752;52.612;13.630;2023-05-10T02:36:11;16.87;;;9.45;;
13366;SDS011;6752;52.612;13.630;2023-05-10T02:41:13;18.60;;;9.18;;
13366;SDS011;6752;52.612;13.630;2023-05-10T02:46:16;14.95;;;9.43;;
13366;SDS011;6752;52.612;13.630;2023-05-10T02:56:23;18.05;;;8.02;;
13366;SDS011;6752;52.612;13.630;2023-05-10T03:01:25;18.20;;;9.07;;
13366;SDS011;6752;52.612;13.630;2023-05-10T03:06:27;15.73;;;9.13;;
13366;SDS011;6752;52.612;13.630;2023-05-10T03:16:42;12.90;;;8.30;;
13366;SDS011;6752;52.612;13.630;2023-05-10T03:21:47;15.35;;;9.75;;
13366;SDS011;6752;52.612;13.630;2023-05-10T03:26:48;12.47;;;8.57;;
13366;SDS011;6752;52.612;13.630;2023-05-10T03:31:50;14.52;;;9.05;;
13366;SDS011;6752;52.612;13.630;2023-05-10T03:36:53;14.60;;;9.27;;
13366;SDS011;6752;52.612;13.630;2023-05-10T03:41:55;14.43;;;8.30;;
13366;SDS011;6752;52.612;13.630;2023-05-10T03:47:17;11.48;;;7.68;;
13366;SDS011;6752;52.612;13.630;2023-05-10T03:52:08;14.10;;;8.43;;
13366;SDS011;6752;52.612;13.630;2023-05-10T03:57:11;15.57;;;9.00;;
13366;SDS011;6752;52.612;13.630;2023-05-10T04:02:13;14.93;;;8.20;;
13366;SDS011;6752;52.612;13.630;2023-05-10T04:07:15;13.57;;;8.43;;
13366;SDS011;6752;52.612;13.630;2023-05-10T04:12:18;12.05;;;8.75;;
13366;SDS011;6752;52.612;13.630;2023-05-10T04:17:20;12.65;;;8.05;;
13366;SDS011;6752;52.612;13.630;2023-05-10T04:22:22;14.98;;;7.80;;
13366;SDS011;6752;52.612;13.630;2023-05-10T04:27:25;15.60;;;8.93;;
13366;SDS011;6752;52.612;13.630;2023-05-10T04:32:27;13.43;;;8.52;;
13366;SDS011;6752;52.612;13.630;2023-05-10T04:37:30;11.23;;;7.53;;
13366;SDS011;6752;52.612;13.630;2023-05-10T04:42:32;11.12;;;7.22;;
13366;SDS011;6752;52.612;13.630;2023-05-10T04:47:34;9.45;;;6.85;;
13366;SDS011;6752;52.612;13.630;2023-05-10T04:52:37;9.27;;;6.80;;
13366;SDS011;6752;52.612;13.630;2023-05-10T04:57:39;11.27;;;6.90;;
13366;SDS011;6752;52.612;13.630;2023-05-10T05:02:44;11.18;;;7.47;;
13366;SDS011;6752;52.612;13.630;2023-05-10T05:07:47;11.38;;;6.70;;
13366;SDS011;6752;52.612;13.630;2023-05-10T05:12:49;11.77;;;6.60;;
13366;SDS011;6752;52.612;13.630;2023-05-10T05:17:51;11.77;;;6.82;;
13366;SDS011;6752;52.612;13.630;2023-05-10T05:22:54;11.32;;;6.68;;
13366;SDS011;6752;52.612;13.630;2023-05-10T05:27:56;12.13;;;6.20;;
13366;SDS011;6752;52.612;13.630;2023-05-10T05:32:58;11.73;;;6.37;;
13366;SDS011;6752;52.612;13.630;2023-05-10T05:38:01;10.10;;;6.37;;
13366;SDS011;6752;52.612;13.630;2023-05-10T05:43:03;9.57;;;5.72;;
13366;SDS011;6752;52.612;13.630;2023-05-10T05:48:05;11.75;;;5.65;;
13366;SDS011;6752;52.612;13.630;2023-05-10T05:53:08;10.48;;;5.47;;
13366;SDS011;6752;52.612;13.630;2023-05-10T05:58:10;8.57;;;5.72;;
13366;SDS011;6752;52.612;13.630;2023-05-10T06:03:13;10.18;;;5.30;;
13366;SDS011;6752;52.612;13.630;2023-05-10T06:13:17;9.52;;;5.20;;
13366;SDS011;6752;52.612;13.630;2023-05-10T06:18:19;10.15;;;4.55;;
13366;SDS011;6752;52.612;13.630;2023-05-10T06:23:21;9.32;;;4.93;;
13366;SDS011;6752;52.612;13.630;2023-05-10T06:28:24;8.50;;;4.25;;
13366;SDS011;6752;52.612;13.630;2023-05-10T06:33:26;6.75;;;3.50;;
13366;SDS011;6752;52.612;13.630;2023-05-10T06:38:29;7.72;;;4.10;;
13366;SDS011;6752;52.612;13.630;2023-05-10T06:43:31;12.30;;;4.43;;
13366;SDS011;6752;52.612;13.630;2023-05-10T06:48:33;8.60;;;3.65;;
13366;SDS011;6752;52.612;13.630;2023-05-10T06:53:38;7.32;;;4.00;;
13366;SDS011;6752;52.612;13.630;2023-05-10T06:58:41;7.32;;;3.95;;
13366;SDS011;6752;52.612;13.630;2023-05-10T07:03:43;8.43;;;3.58;;
13366;SDS011;6752;52.612;13.630;2023-05-10T07:08:45;8.65;;;3.65;;
13366;SDS011;6752;52.612;13.630;2023-05-10T07:13:48;8.48;;;3.70;;
13366;SDS011;6752;52.612;13.630;2023-05-10T07:18:50;8.07;;;3.60;;
13366;SDS011;6752;52.612;13.630;2023-05-10T07:23:52;9.00;;;3.10;;
13366;SDS011;6752;52.612;13.630;2023-05-10T07:28:55;7.60;;;2.90;;
13366;SDS011;6752;52.612;13.630;2023-05-10T07:33:57;7.00;;;3.15;;
13366;SDS011;6752;52.612;13.630;2023-05-10T07:38:59;11.82;;;3.62;;
13366;SDS011;6752;52.612;13.630;2023-05-10T07:44:02;7.93;;;2.92;;
13366;SDS011;6752;52.612;13.630;2023-05-10T07:49:04;7.40;;;3.15;;
13366;SDS011;6752;52.612;13.630;2023-05-10T07:54:06;16.23;;;3.37;;
13366;SDS011;6752;52.612;13.630;2023-05-10T08:09:13;5.85;;;2.92;;
13366;SDS011;6752;52.612;13.630;2023-05-10T08:14:15;6.85;;;2.55;;
13366;SDS011;6752;52.612;13.630;2023-05-10T08:19:17;11.12;;;2.92;;
13366;SDS011;6752;52.612;13.630;2023-05-10T08:24:20;5.50;;;2.87;;
13366;SDS011;6752;52.612;13.630;2023-05-10T08:34:24;9.15;;;3.15;;
13366;SDS011;6752;52.612;13.630;2023-05-10T08:39:26;7.70;;;2.67;;
13366;SDS011;6752;52.612;13.630;2023-05-10T08:44:30;7.28;;;2.80;;
13366;SDS011;6752;52.612;13.630;2023-05-10T08:49:31;6.43;;;2.78;;
13366;SDS011;6752;52.612;13.630;2023-05-10T08:54:33;7.07;;;2.72;;
13366;SDS011;6752;52.612;13.630;2023-05-10T08:59:36;5.95;;;2.58;;
13366;SDS011;6752;52.612;13.630;2023-05-10T09:04:38;11.93;;;3.30;;
13366;SDS011;6752;52.612;13.630;2023-05-10T09:09:40;7.12;;;2.78;;
13366;SDS011;6752;52.612;13.630;2023-05-10T09:14:43;7.00;;;2.90;;
13366;SDS011;6752;52.612;13.630;2023-05-10T09:19:45;9.65;;;2.60;;
13366;SDS011;6752;52.612;13.630;2023-05-10T09:29:49;6.22;;;2.70;;
13366;SDS011;6752;52.612;13.630;2023-05-10T09:34:52;8.38;;;4.03;;
13366;SDS011;6752;52.612;13.630;2023-05-10T09:39:54;5.00;;;2.60;;
13366;SDS011;6752;52.612;13.630;2023-05-10T09:45:01;26.05;;;5.45;;
13366;SDS011;6752;52.612;13.630;2023-05-10T09:50:09;9.68;;;3.28;;
13366;SDS011;6752;52.612;13.630;2023-05-10T09:55:10;16.75;;;4.22;;
13366;SDS011;6752;52.612;13.630;2023-05-10T10:00:16;8.50;;;2.70;;
13366;SDS011;6752;52.612;13.630;2023-05-10T10:05:18;7.78;;;2.97;;
13366;SDS011;6752;52.612;13.630;2023-05-10T10:10:20;9.73;;;2.75;;
13366;SDS011;6752;52.612;13.630;2023-05-10T10:15:23;11.25;;;2.70;;
13366;SDS011;6752;52.612;13.630;2023-05-10T10:20:25;7.57;;;2.58;;
13366;SDS011;6752;52.612;13.630;2023-05-10T10:25:27;5.70;;;2.30;;
13366;SDS011;6752;52.612;13.630;2023-05-10T10:35:44;7.22;;;2.53;;
13366;SDS011;6752;52.612;13.630;2023-05-10T10:40:46;7.10;;;2.70;;
13366;SDS011;6752;52.612;13.630;2023-05-10T10:51:12;9.35;;;2.58;;
13366;SDS011;6752;52.612;13.630;2023-05-10T10:56:14;9.60;;;2.72;;
13366;SDS011;6752;52.612;13.630;2023-05-10T11:01:17;6.35;;;2.30;;
13366;SDS011;6752;52.612;13.630;2023-05-10T11:06:28;8.80;;;2.60;;
13366;SDS011;6752;52.612;13.630;2023-05-10T11:11:21;6.68;;;2.75;;
13366;SDS011;6752;52.612;13.630;2023-05-10T11:16:24;8.88;;;2.37;;
13366;SDS011;6752;52.612;13.630;2023-05-10T11:26:34;7.65;;;2.42;;
13366;SDS011;6752;52.612;13.630;2023-05-10T11:31:41;9.40;;;2.22;;
13366;SDS011;6752;52.612;13.630;2023-05-10T11:36:38;8.95;;;2.53;;
13366;SDS011;6752;52.612;13.630;2023-05-10T11:41:41;10.18;;;2.58;;
13366;SDS011;6752;52.612;13.630;2023-05-10T11:46:43;7.25;;;2.22;;
13366;SDS011;6752;52.612;13.630;2023-05-10T11:51:46;6.45;;;2.25;;
13366;SDS011;6752;52.612;13.630;2023-05-10T11:56:48;9.40;;;2.35;;
13366;SDS011;6752;52.612;13.630;2023-05-10T12:01:50;9.13;;;2.58;;
13366;SDS011;6752;52.612;13.630;2023-05-10T12:06:53;14.37;;;3.43;;
13366;SDS011;6752;52.612;13.630;2023-05-10T12:11:55;7.80;;;2.17;;
13366;SDS011;6752;52.612;13.630;2023-05-10T12:16:57;7.73;;;2.17;;
13366;SDS011;6752;52.612;13.630;2023-05-10T12:22:00;10.73;;;2.47;;
13366;SDS011;6752;52.612;13.630;2023-05-10T12:27:05;8.63;;;2.10;;
13366;SDS011;6752;52.612;13.630;2023-05-10T12:32:07;7.28;;;2.15;;
13366;SDS011;6752;52.612;13.630;2023-05-10T12:37:09;5.37;;;1.90;;
13366;SDS011;6752;52.612;13.630;2023-05-10T12:42:12;7.07;;;2.17;;
13366;SDS011;6752;52.612;13.630;2023-05-10T12:47:14;7.47;;;1.87;;
13366;SDS011;6752;52.612;13.630;2023-05-10T12:52:17;11.23;;;2.17;;
13366;SDS011;6752;52.612;13.630;2023-05-10T13:02:24;6.37;;;1.83;;
13366;SDS011;6752;52.612;13.630;2023-05-10T13:12:28;6.97;;;1.75;;
13366;SDS011;6752;52.612;13.630;2023-05-10T13:17:30;9.18;;;1.60;;
13366;SDS011;6752;52.612;13.630;2023-05-10T13:22:33;7.28;;;1.80;;
13366;SDS011;6752;52.612;13.630;2023-05-10T13:27:35;8.38;;;1.87;;
13366;SDS011;6752;52.612;13.630;2023-05-10T13:32:37;7.18;;;2.00;;
13366;SDS011;6752;52.612;13.630;2023-05-10T13:37:40;5.07;;;1.73;;
13366;SDS011;6752;52.612;13.630;2023-05-10T13:42:42;9.25;;;1.90;;
13366;SDS011;6752;52.612;13.630;2023-05-10T13:47:44;5.00;;;1.60;;
13366;SDS011;6752;52.612;13.630;2023-05-10T13:52:47;7.32;;;1.85;;
13366;SDS011;6752;52.612;13.630;2023-05-10T13:57:49;7.70;;;1.50;;
13366;SDS011;6752;52.612;13.630;2023-05-10T14:02:52;6.20;;;1.25;;
13366;SDS011;6752;52.612;13.630;2023-05-10T14:07:54;5.53;;;1.90;;
13366;SDS011;6752;52.612;13.630;2023-05-10T14:12:56;6.55;;;1.70;;
13366;SDS011;6752;52.612;13.630;2023-05-10T14:18:00;9.35;;;1.83;;
13366;SDS011;6752;52.612;13.630;2023-05-10T14:23:02;6.18;;;1.90;;
13366;SDS011;6752;52.612;13.630;2023-05-10T14:28:04;8.05;;;1.60;;
13366;SDS011;6752;52.612;13.630;2023-05-10T14:33:07;7.30;;;1.70;;
13366;SDS011;6752;52.612;13.630;2023-05-10T14:38:09;7.03;;;1.60;;
13366;SDS011;6752;52.612;13.630;2023-05-10T14:43:11;5.70;;;1.70;;
13366;SDS011;6752;52.612;13.630;2023-05-10T14:48:14;4.03;;;1.48;;
13366;SDS011;6752;52.612;13.630;2023-05-10T14:53:16;4.03;;;1.20;;
13366;SDS011;6752;52.612;13.630;2023-05-10T14:58:18;8.82;;;1.42;;
13366;SDS011;6752;52.612;13.630;2023-05-10T15:03:21;5.78;;;1.50;;
13366;SDS011;6752;52.612;13.630;2023-05-10T15:08:23;6.37;;;1.58;;
13366;SDS011;6752;52.612;13.630;2023-05-10T15:28:31;6.20;;;1.42;;
13366;SDS011;6752;52.612;13.630;2023-05-10T15:33:33;9.32;;;1.60;;
13366;SDS011;6752;52.612;13.630;2023-05-10T15:38:36;7.70;;;1.20;;
13366;SDS011;6752;52.612;13.630;2023-05-10T15:43:38;7.37;;;1.85;;
13366;SDS011;6752;52.612;13.630;2023-05-10T15:48:41;8.48;;;1.42;;
13366;SDS011;6752;52.612;13.630;2023-05-10T15:53:43;6.03;;;1.55;;
13366;SDS011;6752;52.612;13.630;2023-05-10T15:58:45;9.73;;;1.50;;
13366;SDS011;6752;52.612;13.630;2023-05-10T16:03:48;4.03;;;1.25;;
13366;SDS011;6752;52.612;13.630;2023-05-10T16:08:50;4.60;;;1.43;;
13366;SDS011;6752;52.612;13.630;2023-05-10T16:13:52;6.07;;;1.40;;
13366;SDS011;6752;52.612;13.630;2023-05-10T16:18:55;5.72;;;1.45;;
13366;SDS011;6752;52.612;13.630;2023-05-10T16:23:58;5.75;;;1.67;;
13366;SDS011;6752;52.612;13.630;2023-05-10T16:28:59;6.68;;;1.62;;
13366;SDS011;6752;52.612;13.630;2023-05-10T16:34:02;6.40;;;1.58;;
13366;SDS011;6752;52.612;13.630;2023-05-10T16:39:04;4.35;;;1.70;;
13366;SDS011;6752;52.612;13.630;2023-05-10T16:44:06;7.43;;;1.57;;
13366;SDS011;6752;52.612;13.630;2023-05-10T16:49:09;5.82;;;1.40;;
13366;SDS011;6752;52.612;13.630;2023-05-10T16:54:11;5.13;;;1.47;;
13366;SDS011;6752;52.612;13.630;2023-05-10T17:04:15;6.95;;;1.67;;
13366;SDS011;6752;52.612;13.630;2023-05-10T17:09:18;7.57;;;1.70;;
13366;SDS011;6752;52.612;13.630;2023-05-10T17:14:20;6.95;;;1.95;;
13366;SDS011;6752;52.612;13.630;2023-05-10T17:19:23;6.40;;;1.50;;
13366;SDS011;6752;52.612;13.630;2023-05-10T17:24:25;5.78;;;1.92;;
13366;SDS011;6752;52.612;13.630;2023-05-10T17:29:28;5.18;;;1.90;;
13366;SDS011;6752;52.612;13.630;2023-05-10T17:34:30;7.82;;;2.25;;
13366;SDS011;6752;52.612;13.630;2023-05-10T17:39:32;5.37;;;2.40;;
13366;SDS011;6752;52.612;13.630;2023-05-10T17:44:34;8.30;;;3.15;;
13366;SDS011;6752;52.612;13.630;2023-05-10T17:49:37;10.55;;;3.75;;
13366;SDS011;6752;52.612;13.630;2023-05-10T17:54:39;8.88;;;4.50;;
13366;SDS011;6752;52.612;13.630;2023-05-10T17:59:41;10.88;;;4.82;;
13366;SDS011;6752;52.612;13.630;2023-05-10T18:04:44;9.68;;;4.57;;
13366;SDS011;6752;52.612;13.630;2023-05-10T18:09:46;10.27;;;4.75;;
13366;SDS011;6752;52.612;13.630;2023-05-10T18:14:48;18.30;;;5.00;;
13366;SDS011;6752;52.612;13.630;2023-05-10T18:19:51;11.95;;;5.20;;
13366;SDS011;6752;52.612;13.630;2023-05-10T18:24:57;10.27;;;4.43;;
13366;SDS011;6752;52.612;13.630;2023-05-10T18:29:58;8.30;;;5.20;;
13366;SDS011;6752;52.612;13.630;2023-05-10T18:35:01;13.50;;;6.25;;
13366;SDS011;6752;52.612;13.630;2023-05-10T18:40:04;11.38;;;5.53;;
13366;SDS011;6752;52.612;13.630;2023-05-10T18:45:06;12.37;;;5.87;;
13366;SDS011;6752;52.612;13.630;2023-05-10T18:50:08;9.02;;;5.95;;
13366;SDS011;6752;52.612;13.630;2023-05-10T18:55:10;10.05;;;6.62;;
13366;SDS011;6752;52.612;13.630;2023-05-10T19:00:13;10.25;;;6.00;;
13366;SDS011;6752;52.612;13.630;2023-05-10T19:05:15;24.50;;;7.37;;
13366;SDS011;6752;52.612;13.630;2023-05-10T19:10:21;16.17;;;7.87;;
13366;SDS011;6752;52.612;13.630;2023-05-10T19:15:20;17.48;;;7.93;;
13366;SDS011;6752;52.612;13.630;2023-05-10T19:20:22;15.02;;;7.62;;
13366;SDS011;6752;52.612;13.630;2023-05-10T19:25:25;19.37;;;8.23;;
13366;SDS011;6752;52.612;13.630;2023-05-10T19:30:27;13.98;;;6.35;;
13366;SDS011;6752;52.612;13.630;2023-05-10T19:35:29;10.65;;;6.40;;
13366;SDS011;6752;52.612;13.630;2023-05-10T19:40:32;10.55;;;5.70;;
13366;SDS011;6752;52.612;13.630;2023-05-10T19:45:34;16.85;;;6.55;;
13366;SDS011;6752;52.612;13.630;2023-05-10T19:50:36;10.38;;;6.45;;
13366;SDS011;6752;52.612;13.630;2023-05-10T19:55:39;10.07;;;6.30;;
13366;SDS011;6752;52.612;13.630;2023-05-10T20:00:41;10.20;;;6.78;;
13366;SDS011;6752;52.612;13.630;2023-05-10T20:05:43;10.40;;;5.82;;
13366;SDS011;6752;52.612;13.630;2023-05-10T20:10:46;8.90;;;5.43;;
13366;SDS011;6752;52.612;13.630;2023-05-10T20:15:48;11.65;;;5.93;;
13366;SDS011;6752;52.612;13.630;2023-05-10T20:20:54;9.75;;;5.22;;
13366;SDS011;6752;52.612;13.630;2023-05-10T20:25:56;8.95;;;5.47;;
13366;SDS011;6752;52.612;13.630;2023-05-10T20:30:58;8.88;;;5.82;;
13366;SDS011;6752;52.612;13.630;2023-05-10T20:36:01;10.57;;;6.00;;
13366;SDS011;6752;52.612;13.630;2023-05-10T20:41:03;8.88;;;5.75;;
13366;SDS011;6752;52.612;13.630;2023-05-10T20:46:10;8.80;;;5.65;;
13366;SDS011;6752;52.612;13.630;2023-05-10T20:51:12;12.82;;;5.50;;
13366;SDS011;6752;52.612;13.630;2023-05-10T20:56:14;7.85;;;5.55;;
13366;SDS011;6752;52.612;13.630;2023-05-10T21:01:20;10.65;;;6.00;;
13366;SDS011;6752;52.612;13.630;2023-05-10T21:06:23;15.68;;;5.85;;
13366;SDS011;6752;52.612;13.630;2023-05-10T21:16:23;10.25;;;6.12;;
13366;SDS011;6752;52.612;13.630;2023-05-10T21:21:26;9.63;;;5.72;;
13366;SDS011;6752;52.612;13.630;2023-05-10T21:26:28;10.93;;;5.85;;
13366;SDS011;6752;52.612;13.630;2023-05-10T21:31:30;9.25;;;5.72;;
13366;SDS011;6752;52.612;13.630;2023-05-10T21:36:33;8.05;;;5.70;;
13366;SDS011;6752;52.612;13.630;2023-05-10T21:41:35;12.52;;;5.78;;
13366;SDS011;6752;52.612;13.630;2023-05-10T21:46:38;7.53;;;5.15;;
13366;SDS011;6752;52.612;13.630;2023-05-10T21:51:40;9.23;;;5.80;;
13366;SDS011;6752;52.612;13.630;2023-05-10T21:56:42;10.82;;;5.85;;
13366;SDS011;6752;52.612;13.630;2023-05-10T22:01:45;8.82;;;6.12;;
13366;SDS011;6752;52.612;13.630;2023-05-10T22:06:47;7.65;;;5.43;;
13366;SDS011;6752;52.612;13.630;2023-05-10T22:11:49;9.90;;;7.10;;
13366;SDS011;6752;52.612;13.630;2023-05-10T22:16:52;14.15;;;7.07;;
13366;SDS011;6752;52.612;13.630;2023-05-10T22:21:54;11.30;;;7.65;;
13366;SDS011;6752;52.612;13.630;2023-05-10T22:26:56;11.57;;;7.03;;
13366;SDS011;6752;52.612;13.630;2023-05-10T22:31:59;11.10;;;6.82;;
13366;SDS011;6752;52.612;13.630;2023-05-10T22:37:02;12.30;;;9.32;;
13366;SDS011;6752;52.612;13.630;2023-05-10T22:42:04;8.88;;;7.12;;
13366;SDS011;6752;52.612;13.630;2023-05-10T22:47:06;9.40;;;6.90;;
13366;SDS011;6752;52.612;13.630;2023-05-10T22:52:09;11.50;;;7.00;;
13366;SDS011;6752;52.612;13.630;2023-05-10T22:57:11;14.87;;;8.23;;
13366;SDS011;6752;52.612;13.630;2023-05-10T23:02:13;10.70;;;7.62;;
13366;SDS011;6752;52.612;13.630;2023-05-10T23:07:15;11.15;;;6.82;;
13366;SDS011;6752;52.612;13.630;2023-05-10T23:12:18;11.20;;;7.18;;
13366;SDS011;6752;52.612;13.630;2023-05-10T23:17:20;11.77;;;6.97;;
13366;SDS011;6752;52.612;13.630;2023-05-10T23:22:23;11.57;;;7.75;;
13366;SDS011;6752;52.612;13.630;2023-05-10T23:27:28;13.13;;;7.60;;
13366;SDS011;6752;52.612;13.630;2023-05-10T23:32:30;14.60;;;7.95;;
13366;SDS011;6752;52.612;13.630;2023-05-10T23:37:33;9.75;;;7.60;;
13366;SDS011;6752;52.612;13.630;2023-05-10T23:42:35;14.43;;;7.53;;
13366;SDS011;6752;52.612;13.630;2023-05-10T23:47:37;10.15;;;7.50;;
13366;SDS011;6752;52.612;13.630;2023-05-10T23:52:40;14.23;;;7.32;;
13366;SDS011;6752;52.612;13.630;2023-05-10T23:57:42;10.18;;;7.47;;
